Time;durP1;ratioP1;P1;durP2;ratioP2;P2;SDS_P1;SDS_P2;PMS_P1;PMS_P2;Temp;Humidity;BMP_temperature;BMP_pressure;BME280_temperature;BME280_humidity;BME280_pressure;Samples;Min_cycle;Max_cycle;Signal;HPM_P1;HPM_P2
2023/04/08 00:01:41;;;;;;;15.50;12.80;;;;;;;16.44;35.94;93178.56;4975691;28;20033;-94
2023/04/08 00:04:08;;;;;;;15.65;13.10;;;;;;;16.36;36.09;93163.94;4977075;28;20054;-93
2023/04/08 00:06:34;;;;;;;16.02;12.30;;;;;;;16.48;36.06;93172.81;4956679;28;20425;-92
2023/04/08 00:08:59;;;;;;;15.75;11.95;;;;;;;16.48;35.87;93161.91;4953791;28;20050;-92
2023/04/08 00:11:25;;;;;;;14.68;13.18;;;;;;;16.43;35.64;93166.16;4971384;28;20043;-92
2023/04/08 00:13:50;;;;;;;14.80;12.70;;;;;;;16.41;35.90;93160.47;4967126;28;20064;-93
2023/04/08 00:16:16;;;;;;;14.65;13.02;;;;;;;16.43;35.97;93166.16;4975812;28;20513;-92
2023/04/08 00:18:41;;;;;;;15.32;12.77;;;;;;;16.37;35.92;93160.72;4959455;28;20034;-93
2023/04/08 00:21:07;;;;;;;13.82;12.30;;;;;;;16.40;36.03;93156.25;4969778;28;20042;-94
2023/04/08 00:23:32;;;;;;;14.15;12.32;;;;;;;16.48;36.11;93156.44;4981667;28;20038;-93
2023/04/08 00:25:58;;;;;;;16.92;13.68;;;;;;;16.36;35.91;93156.50;4973394;28;20027;-93
2023/04/08 00:28:23;;;;;;;14.52;12.10;;;;;;;16.36;35.91;93163.94;4972608;28;20054;-94
2023/04/08 00:30:48;;;;;;;14.55;12.57;;;;;;;16.30;36.08;93152.31;4957392;28;20042;-93
2023/04/08 00:33:14;;;;;;;14.68;12.65;;;;;;;16.33;36.25;93167.69;4955464;28;20041;-92
2023/04/08 00:35:39;;;;;;;15.13;12.80;;;;;;;16.35;35.85;93159.75;4957151;28;20035;-92
2023/04/08 00:38:06;;;;;;;17.55;13.80;;;;;;;16.39;35.93;93158.22;4958348;28;20030;-93
2023/04/08 00:40:32;;;;;;;13.93;11.68;;;;;;;16.42;35.83;93159.22;4957164;28;20038;-92
2023/04/08 00:42:58;;;;;;;13.95;11.80;;;;;;;16.45;35.93;93158.94;4957216;28;20485;-92
2023/04/08 00:45:23;;;;;;;13.57;12.10;;;;;;;16.35;35.93;93165.19;4953530;28;20162;-93
2023/04/08 00:47:51;;;;;;;13.80;12.30;;;;;;;16.34;35.95;93164.44;4969994;28;20043;-92
2023/04/08 00:50:16;;;;;;;14.00;10.98;;;;;;;16.46;36.59;93167.84;4951736;28;20070;-94
2023/04/08 00:52:42;;;;;;;15.77;13.23;;;;;;;16.44;35.96;93160.19;4974957;28;20484;-94
2023/04/08 00:55:07;;;;;;;15.05;13.38;;;;;;;16.35;35.86;93167.94;4974860;28;20466;-94
2023/04/08 00:57:33;;;;;;;14.40;11.77;;;;;;;16.35;36.04;93162.47;4956693;28;20035;-93
2023/04/08 00:59:58;;;;;;;12.90;11.50;;;;;;;16.40;36.18;93156.25;4956980;28;20050;-94
2023/04/08 01:02:29;;;;;;;15.00;12.50;;;;;;;16.36;36.00;93158.50;4955892;28;20057;-92
2023/04/08 01:05:01;;;;;;;14.55;12.95;;;;;;;16.36;36.13;93159.25;4985613;28;20053;-93
2023/04/08 01:07:28;;;;;;;14.50;12.13;;;;;;;16.42;36.36;93159.97;4956597;28;20042;-93
2023/04/08 01:09:55;;;;;;;15.60;12.77;;;;;;;16.41;36.32;93160.47;4952947;28;20058;-93
2023/04/08 01:12:29;;;;;;;13.82;11.15;;;;;;;16.40;36.09;93162.44;4956076;28;20066;-93
2023/04/08 01:15:01;;;;;;;14.43;12.88;;;;;;;16.35;36.06;93165.19;5008040;28;20092;-93
2023/04/08 01:17:27;;;;;;;14.00;11.40;;;;;;;16.42;35.89;93165.41;4982749;28;20361;-92
2023/04/08 01:19:52;;;;;;;15.68;12.73;;;;;;;16.33;36.07;93173.13;4976748;28;20073;-95
2023/04/08 01:22:36;;;;;;;16.73;12.63;;;;;;;16.29;36.40;93167.19;4978585;28;20042;-93
2023/04/08 01:25:06;;;;;;;16.58;13.15;;;;;;;16.35;35.93;93165.19;5044697;28;20046;-92
2023/04/08 01:27:32;;;;;;;14.20;12.45;;;;;;;16.35;36.02;93154.28;4981101;28;20176;-92
2023/04/08 01:29:58;;;;;;;14.13;11.68;;;;;;;16.35;36.17;93157.75;4995930;28;20291;-93
2023/04/08 01:32:24;;;;;;;15.80;13.13;;;;;;;16.31;36.14;93162.72;4979276;28;20040;-94
2023/04/08 01:34:49;;;;;;;12.65;11.27;;;;;;;16.30;36.29;93163.97;5010857;28;20133;-92
2023/04/08 01:37:14;;;;;;;14.43;12.25;;;;;;;16.36;36.31;93159.25;4998749;28;20403;-94
2023/04/08 01:39:40;;;;;;;12.82;11.07;;;;;;;16.37;36.44;93149.06;4980045;28;20065;-92
2023/04/08 01:42:06;;;;;;;13.75;11.75;;;;;;;16.43;36.27;93145.06;4991847;28;20053;-92
2023/04/08 01:44:32;;;;;;;13.85;11.82;;;;;;;16.44;36.43;93154.75;4995292;28;20075;-95
2023/04/08 01:46:57;;;;;;;13.90;11.75;;;;;;;16.40;35.92;93146.09;4979450;28;20045;-93
2023/04/08 01:49:23;;;;;;;13.30;11.85;;;;;;;16.41;36.25;93158.47;4975567;28;20049;-93
2023/04/08 01:51:48;;;;;;;13.25;11.40;;;;;;;16.46;36.14;93163.16;4992556;28;20061;-93
2023/04/08 01:54:14;;;;;;;12.85;10.93;;;;;;;16.45;36.25;93161.66;4994601;28;20042;-92
2023/04/08 01:56:40;;;;;;;14.82;11.75;;;;;;;16.46;36.39;93154.97;4975603;28;20539;-93
2023/04/08 01:59:08;;;;;;;13.88;12.10;;;;;;;16.42;36.16;93156.50;5001740;28;20060;-92
2023/04/08 02:01:34;;;;;;;15.13;12.93;;;;;;;16.36;36.41;93159.25;4986184;28;20160;-93
2023/04/08 02:04:00;;;;;;;12.95;11.52;;;;;;;16.41;36.36;93153.03;5011321;28;20165;-92
2023/04/08 02:06:26;;;;;;;13.95;12.00;;;;;;;16.30;36.15;93150.34;4994366;28;20038;-94
2023/04/08 02:08:53;;;;;;;13.50;11.40;;;;;;;16.37;36.36;93147.09;4979071;28;20056;-93
2023/04/08 02:11:18;;;;;;;14.02;11.57;;;;;;;16.39;36.49;93146.59;4978182;28;20034;-92
2023/04/08 02:13:45;;;;;;;14.75;12.05;;;;;;;16.41;36.65;93150.28;4979049;28;20526;-92
2023/04/08 02:16:21;;;;;;;14.07;12.23;;;;;;;16.39;36.32;93150.06;4996677;28;20415;-92
2023/04/08 02:18:54;;;;;;;13.25;10.70;;;;;;;16.41;36.70;93158.47;4983296;28;20070;-92
2023/04/08 02:21:20;;;;;;;13.73;11.98;;;;;;;16.31;36.50;93149.09;4978641;28;20192;-93
2023/04/08 02:23:46;;;;;;;12.93;11.52;;;;;;;16.36;36.37;93153.03;4984999;28;20037;-92
2023/04/08 02:26:13;;;;;;;15.50;12.18;;;;;;;16.38;36.57;93154.03;4980347;28;20042;-92
2023/04/08 02:28:38;;;;;;;13.77;10.65;;;;;;;16.42;36.30;93151.03;4977785;28;20065;-92
2023/04/08 02:31:04;;;;;;;12.80;11.25;;;;;;;16.46;36.53;93162.41;4978094;28;20419;-91
2023/04/08 02:33:29;;;;;;;12.18;10.55;;;;;;;16.45;36.59;93153.47;4975479;28;20046;-92
2023/04/08 02:35:55;;;;;;;13.05;11.13;;;;;;;16.43;36.77;93160.69;4994965;28;20061;-92
2023/04/08 02:38:22;;;;;;;12.68;11.30;;;;;;;16.43;36.62;93163.44;4979271;28;20388;-92
2023/04/08 02:40:48;;;;;;;12.63;10.65;;;;;;;16.32;36.60;93158.75;5013973;28;20045;-92
2023/04/08 02:43:14;;;;;;;13.07;11.38;;;;;;;16.41;36.51;93163.19;4997361;28;20037;-91
2023/04/08 02:45:41;;;;;;;13.02;11.13;;;;;;;16.46;36.74;93156.94;4989096;28;20056;-92
2023/04/08 02:48:08;;;;;;;12.40;10.93;;;;;;;16.46;36.56;93168.59;4977408;28;20061;-93
2023/04/08 02:50:33;;;;;;;12.88;11.43;;;;;;;16.42;36.45;93168.16;4977350;28;20053;-93
2023/04/08 02:52:59;;;;;;;11.93;10.35;;;;;;;16.46;36.98;93168.59;4977757;28;20121;-93
2023/04/08 02:55:24;;;;;;;11.85;10.60;;;;;;;16.44;36.89;93170.38;4991730;28;20056;-92
2023/04/08 02:57:50;;;;;;;14.25;11.80;;;;;;;16.27;36.91;93164.97;4997864;28;20038;-92
2023/04/08 03:00:16;;;;;;;13.27;11.65;;;;;;;16.39;36.62;93168.41;4974744;28;20043;-93
2023/04/08 03:02:41;;;;;;;12.70;11.23;;;;;;;16.35;36.67;93168.66;4990291;28;20027;-92
2023/04/08 03:05:07;;;;;;;13.95;11.55;;;;;;;16.31;36.52;93172.91;4997490;28;20071;-93
2023/04/08 03:07:32;;;;;;;12.35;11.00;;;;;;;16.26;36.35;93179.09;4977636;28;20038;-93
2023/04/08 03:09:58;;;;;;;14.68;12.38;;;;;;;16.22;36.94;93168.47;4990709;28;20054;-93
2023/04/08 03:12:26;;;;;;;13.07;11.68;;;;;;;16.34;36.77;93174.63;4989973;28;20026;-93
2023/04/08 03:14:51;;;;;;;15.20;12.38;;;;;;;16.32;36.58;93174.38;4995358;28;20056;-94
2023/04/08 03:17:17;;;;;;;13.25;11.07;;;;;;;16.31;36.87;93184.53;4976745;28;20046;-93
2023/04/08 03:19:42;;;;;;;14.27;11.07;;;;;;;16.37;36.83;93181.81;4978778;28;20176;-93
2023/04/08 03:22:11;;;;;;;13.40;11.45;;;;;;;16.37;36.95;93181.81;4978365;28;20034;-94
2023/04/08 03:24:37;;;;;;;12.65;10.80;;;;;;;16.37;36.45;93181.81;4991716;28;20046;-93
2023/04/08 03:27:03;;;;;;;12.18;10.65;;;;;;;16.34;36.95;93183.53;4995107;28;20373;-94
2023/04/08 03:29:28;;;;;;;13.25;11.38;;;;;;;16.26;36.61;93182.56;4975876;28;20049;-93
2023/04/08 03:31:54;;;;;;;12.73;10.40;;;;;;;16.30;36.76;93187.78;4991202;28;20657;-93
2023/04/08 03:34:19;;;;;;;13.27;11.48;;;;;;;16.30;36.93;93188.53;4994587;28;20033;-92
2023/04/08 03:36:45;;;;;;;12.80;11.32;;;;;;;16.29;36.96;93184.31;4977869;28;20516;-92
2023/04/08 03:39:10;;;;;;;13.73;11.00;;;;;;;16.39;37.10;93190.97;4982784;28;20033;-92
2023/04/08 03:41:35;;;;;;;12.48;11.20;;;;;;;16.27;36.88;93194.22;5012975;28;20045;-93
2023/04/08 03:44:01;;;;;;;13.65;11.30;;;;;;;16.26;36.90;93190.75;4996387;28;20034;-93
2023/04/08 03:46:26;;;;;;;11.35;10.15;;;;;;;16.26;37.31;93196.22;4995991;28;20483;-92
2023/04/08 03:48:52;;;;;;;12.05;10.45;;;;;;;16.34;36.81;93193.72;4996572;28;20442;-92
2023/04/08 03:51:17;;;;;;;11.73;9.77;;;;;;;16.34;37.31;93199.91;4975477;28;20335;-93
2023/04/08 03:53:43;;;;;;;12.93;10.13;;;;;;;16.31;36.97;93198.19;5008273;28;20053;-93
2023/04/08 03:56:08;;;;;;;12.73;10.82;;;;;;;16.26;37.08;93206.38;4994767;28;20048;-92
2023/04/08 03:58:34;;;;;;;14.45;11.65;;;;;;;16.25;37.03;93199.44;4997133;28;20041;-93
2023/04/08 04:01:03;;;;;;;12.57;10.88;;;;;;;16.25;36.96;93205.63;4996972;28;20064;-93
2023/04/08 04:03:28;;;;;;;12.90;11.40;;;;;;;16.22;36.77;93203.19;4993811;28;20041;-93
2023/04/08 04:05:54;;;;;;;13.05;11.43;;;;;;;16.23;37.32;93210.88;5016118;28;20052;-93
2023/04/08 04:08:19;;;;;;;11.20;9.95;;;;;;;16.37;37.53;93203.63;4996092;28;20045;-93
2023/04/08 04:10:45;;;;;;;12.27;10.18;;;;;;;16.32;37.08;93205.13;5009962;28;20041;-95
2023/04/08 04:13:11;;;;;;;13.60;11.05;;;;;;;16.28;37.08;93217.53;4997180;28;20049;-93
2023/04/08 04:15:39;;;;;;;11.55;9.75;;;;;;;16.34;37.14;93207.34;4998402;28;20041;-93
2023/04/08 04:18:05;;;;;;;12.60;9.25;;;;;;;16.36;37.05;93213.78;5005414;28;20045;-94
2023/04/08 04:20:30;;;;;;;12.40;10.07;;;;;;;16.36;37.14;93223.97;4996832;28;20168;-93
2023/04/08 04:22:56;;;;;;;12.52;10.15;;;;;;;16.37;37.27;93220.00;4979998;28;20030;-93
2023/04/08 04:25:21;;;;;;;11.95;9.40;;;;;;;16.38;37.25;93222.22;4980752;28;20057;-92
2023/04/08 04:27:47;;;;;;;12.60;10.50;;;;;;;16.29;37.09;93222.50;4989180;28;20026;-93
2023/04/08 04:30:14;;;;;;;12.45;10.10;;;;;;;16.35;37.17;93228.69;5007990;28;20052;-93
2023/04/08 04:32:41;;;;;;;11.35;10.15;;;;;;;16.24;37.13;93220.53;5002763;28;20034;-93
2023/04/08 04:35:08;;;;;;;12.95;11.15;;;;;;;16.27;37.35;93219.53;4997421;28;20046;-93
2023/04/08 04:37:33;;;;;;;11.40;10.10;;;;;;;16.24;37.00;93222.53;4997969;28;20041;-93
2023/04/08 04:39:59;;;;;;;13.02;10.85;;;;;;;16.25;37.03;93227.47;4993242;28;20037;-92
2023/04/08 04:42:24;;;;;;;10.88;9.68;;;;;;;16.30;37.40;93223.97;4986237;28;20038;-93
2023/04/08 04:44:50;;;;;;;13.60;10.63;;;;;;;16.25;37.28;93226.72;4998103;28;20043;-95
2023/04/08 04:47:23;;;;;;;12.18;10.23;;;;;;;16.23;36.96;93229.22;4983660;28;20046;-93
2023/04/08 04:49:49;;;;;;;11.43;9.77;;;;;;;16.31;37.55;93225.47;4984623;28;20044;-94
2023/04/08 04:52:15;;;;;;;10.48;9.38;;;;;;;16.30;37.10;93232.16;5015137;28;20061;-94
2023/04/08 04:54:43;;;;;;;12.00;9.95;;;;;;;16.24;37.23;93238.91;5008842;28;20045;-93
2023/04/08 04:57:10;;;;;;;11.98;9.90;;;;;;;16.26;37.30;93231.69;4981935;28;20050;-93
2023/04/08 04:59:35;;;;;;;11.65;9.80;;;;;;;16.21;37.41;93227.00;4981302;28;20042;-93
2023/04/08 05:02:01;;;;;;;10.93;9.52;;;;;;;16.30;37.42;93240.34;5027640;28;20037;-93
2023/04/08 05:04:26;;;;;;;11.07;8.88;;;;;;;16.30;37.48;93236.88;5017906;28;20042;-93
2023/04/08 05:06:51;;;;;;;11.43;10.05;;;;;;;16.30;37.42;93237.63;4987647;28;20046;-93
2023/04/08 05:09:17;;;;;;;11.50;9.98;;;;;;;16.26;37.12;93236.38;4984892;28;20057;-93
2023/04/08 05:11:42;;;;;;;9.63;8.55;;;;;;;16.36;37.40;93243.06;4986313;28;20045;-93
2023/04/08 05:14:08;;;;;;;10.95;9.45;;;;;;;16.23;37.36;93243.59;4977187;28;20064;-93
2023/04/08 05:16:33;;;;;;;9.55;8.20;;;;;;;16.28;37.37;93242.09;4986628;28;20049;-93
2023/04/08 05:18:59;;;;;;;10.68;9.50;;;;;;;16.32;37.04;93240.59;4999260;28;20049;-93
2023/04/08 05:21:26;;;;;;;11.45;9.85;;;;;;;16.22;37.17;93244.84;5039511;28;20067;-93
2023/04/08 05:23:52;;;;;;;10.43;9.00;;;;;;;16.19;37.53;93251.31;5010870;28;20049;-93
2023/04/08 05:26:20;;;;;;;12.25;9.93;;;;;;;16.16;37.13;93251.56;4985087;28;20418;-93
2023/04/08 05:28:46;;;;;;;11.65;9.43;;;;;;;16.27;37.41;93243.31;5018487;28;20034;-93
2023/04/08 05:31:14;;;;;;;11.57;10.02;;;;;;;16.20;37.39;93249.31;4986147;28;20064;-94
2023/04/08 05:33:40;;;;;;;11.18;9.38;;;;;;;16.18;37.39;93247.09;4997269;28;20033;-92
2023/04/08 05:36:05;;;;;;;9.40;8.18;;;;;;;16.26;37.56;93237.13;5038507;28;20056;-93
2023/04/08 05:38:31;;;;;;;11.68;9.52;;;;;;;16.19;37.20;93242.38;5031182;28;20105;-93
2023/04/08 05:40:56;;;;;;;9.90;8.30;;;;;;;16.29;37.59;93251.75;4986897;28;20105;-93
2023/04/08 05:43:21;;;;;;;10.10;9.05;;;;;;;16.23;37.65;93251.78;4994182;28;21180;-93
2023/04/08 05:45:47;;;;;;;11.45;9.95;;;;;;;16.21;37.35;93261.72;5027252;28;20030;-93
2023/04/08 05:48:12;;;;;;;11.05;9.00;;;;;;;16.26;37.67;93258.94;4983346;28;20035;-93
2023/04/08 05:50:38;;;;;;;11.52;9.52;;;;;;;16.21;37.24;93256.25;5014498;28;20045;-93
2023/04/08 05:53:03;;;;;;;9.80;8.80;;;;;;;16.23;37.53;93251.78;5021704;28;20037;-93
2023/04/08 05:55:29;;;;;;;9.90;8.45;;;;;;;16.26;37.64;93250.75;5038061;28;20033;-94
2023/04/08 05:57:54;;;;;;;9.48;7.93;;;;;;;16.30;37.52;93255.97;5007986;28;20052;-93
2023/04/08 06:00:21;;;;;;;11.20;9.25;;;;;;;16.19;37.24;93261.47;5037642;28;20041;-93
2023/04/08 06:02:47;;;;;;;14.27;9.70;;;;;;;16.19;37.31;93264.94;5018978;28;20026;-92
2023/04/08 06:05:13;;;;;;;13.52;9.00;;;;;;;16.25;37.82;93256.72;4984300;28;20394;-93
2023/04/08 06:07:38;;;;;;;21.55;10.63;;;;;;;16.07;37.53;93258.75;4985442;28;20406;-93
2023/04/08 06:10:08;;;;;;;11.27;9.43;;;;;;;16.13;37.25;93268.91;5001569;28;20049;-92
2023/04/08 06:12:38;;;;;;;15.15;8.38;;;;;;;16.12;37.51;93259.97;4996921;28;20080;-93
2023/04/08 06:15:05;;;;;;;12.27;8.73;;;;;;;16.16;37.79;93271.38;4995518;28;20598;-92
2023/04/08 06:17:30;;;;;;;13.18;9.73;;;;;;;16.12;37.58;93262.72;4987494;28;20038;-92
2023/04/08 06:19:56;;;;;;;10.23;8.48;;;;;;;16.25;37.64;93262.91;4994916;28;20047;-94
2023/04/08 06:22:21;;;;;;;11.43;9.23;;;;;;;16.17;37.54;93269.41;4997378;28;20069;-92
2023/04/08 06:24:47;;;;;;;11.70;9.63;;;;;;;16.13;37.47;93274.38;5013850;28;20041;-94
2023/04/08 06:27:13;;;;;;;10.88;9.00;;;;;;;16.09;37.72;93269.91;4996088;28;20053;-94
2023/04/08 06:29:40;;;;;;;10.38;8.85;;;;;;;16.06;37.45;93259.25;4977476;28;20109;-93
2023/04/08 06:32:23;;;;;;;11.05;9.73;;;;;;;16.08;37.80;93260.22;4981756;28;20196;-94
2023/04/08 06:34:49;;;;;;;13.10;9.07;;;;;;;16.16;38.08;93270.63;4988777;28;20050;-94
2023/04/08 06:37:15;;;;;;;22.70;9.45;;;;;;;16.15;37.43;93269.91;4954498;28;20258;-93
2023/04/08 06:39:45;;;;;;;14.20;8.90;;;;;;;16.09;37.64;93269.91;4966305;28;20051;-94
2023/04/08 06:42:14;;;;;;;10.75;7.88;;;;;;;16.10;37.77;93274.13;4972965;28;20046;-93
2023/04/08 06:44:49;;;;;;;13.13;10.00;;;;;;;16.10;37.55;93270.66;4955305;28;20074;-93
2023/04/08 06:47:18;;;;;;;13.50;8.63;;;;;;;16.15;37.84;93272.63;4973606;28;20061;-93
2023/04/08 06:49:44;;;;;;;18.60;9.43;;;;;;;16.10;37.49;93273.38;4923542;23;20047;-94
2023/04/08 06:52:10;;;;;;;17.98;9.25;;;;;;;16.15;37.62;93283.53;4945512;28;20487;-93
2023/04/08 06:54:36;;;;;;;14.75;9.30;;;;;;;16.18;37.78;93281.78;4959894;28;20036;-93
2023/04/08 06:57:03;;;;;;;17.63;8.48;;;;;;;16.14;37.60;93281.31;4949902;28;20040;-90
2023/04/08 06:59:29;;;;;;;35.30;10.55;;;;;;;16.18;37.98;93282.53;4929621;28;20575;-91
2023/04/08 07:01:54;;;;;;;27.75;11.45;;;;;;;16.13;37.82;93288.75;4963229;28;20043;-91
2023/04/08 07:04:20;;;;;;;30.77;11.45;;;;;;;16.14;37.73;93292.97;4949942;29;20047;-91
2023/04/08 07:06:45;;;;;;;69.65;14.52;;;;;;;16.16;37.78;93287.75;4934361;29;20042;-92
2023/04/08 07:09:11;;;;;;;34.00;10.38;;;;;;;16.27;37.82;93287.72;4949449;29;20043;-94
2023/04/08 07:11:36;;;;;;;34.70;9.90;;;;;;;16.31;38.27;93298.38;4950787;29;20601;-92
2023/04/08 07:14:02;;;;;;;43.92;13.23;;;;;;;16.18;37.93;93295.44;4950123;29;20570;-92
2023/04/08 07:16:27;;;;;;;44.80;13.35;;;;;;;16.16;38.05;93306.84;4949725;28;20051;-92
2023/04/08 07:18:53;;;;;;;39.97;13.02;;;;;;;16.19;37.99;93302.38;4940898;28;20072;-92
2023/04/08 07:21:18;;;;;;;47.47;15.63;;;;;;;16.23;37.52;93305.59;4941515;29;20552;-92
2023/04/08 07:23:44;;;;;;;41.13;14.23;;;;;;;16.20;37.96;93310.06;4930216;29;20127;-93
2023/04/08 07:26:09;;;;;;;43.00;14.95;;;;;;;16.23;37.88;93311.78;4927210;29;20054;-91
2023/04/08 07:28:35;;;;;;;47.22;14.65;;;;;;;16.23;38.03;93316.50;4914808;29;20431;-92
2023/04/08 07:31:13;;;;;;;57.00;16.00;;;;;;;16.20;37.94;93312.78;4914201;29;20581;-92
2023/04/08 07:33:39;;;;;;;58.92;15.27;;;;;;;16.19;38.12;93316.00;4905289;29;20516;-91
2023/04/08 07:36:05;;;;;;;41.97;15.77;;;;;;;16.17;37.42;93318.50;4965006;28;20079;-91
2023/04/08 07:38:31;;;;;;;58.92;16.83;;;;;;;16.17;37.67;93327.41;4964578;28;20039;-93
2023/04/08 07:40:56;;;;;;;41.55;12.80;;;;;;;16.26;37.87;93326.41;4966009;28;20055;-91
2023/04/08 07:43:21;;;;;;;35.72;15.45;;;;;;;16.19;37.78;93329.66;4949137;28;20237;-93
2023/04/08 07:45:47;;;;;;;41.10;14.07;;;;;;;16.15;37.89;93329.16;4946571;28;20043;-93
2023/04/08 07:48:12;;;;;;;40.35;15.13;;;;;;;16.14;37.71;93327.66;4930828;28;20052;-90
2023/04/08 07:50:38;;;;;;;145.80;26.25;;;;;;;16.14;38.13;93336.59;4948774;28;20528;-91
2023/04/08 07:53:03;;;;;;;51.58;15.40;;;;;;;16.24;37.91;93326.88;4953386;28;20074;-93
2023/04/08 07:55:33;;;;;;;44.10;14.60;;;;;;;16.23;38.22;93336.34;4963814;23;20050;-90
2023/04/08 07:57:58;;;;;;;54.75;15.70;;;;;;;16.32;37.75;93330.59;4956323;28;20054;-93
2023/04/08 08:00:24;;;;;;;69.90;18.20;;;;;;;16.25;38.05;93333.09;4959043;28;20047;-91
2023/04/08 08:02:49;;;;;;;46.22;17.13;;;;;;;16.23;38.04;93335.59;4963969;28;20047;-92
2023/04/08 08:05:15;;;;;;;71.70;20.13;;;;;;;16.18;37.85;93339.81;4978121;23;20051;-90
2023/04/08 08:07:40;;;;;;;61.63;19.65;;;;;;;16.17;37.58;93335.59;4963533;28;20031;-90
2023/04/08 08:10:09;;;;;;;50.30;18.67;;;;;;;16.18;38.02;93344.53;4981726;28;20043;-90
2023/04/08 08:12:38;;;;;;;50.50;17.42;;;;;;;16.20;37.66;93337.34;4955254;28;20084;-90
2023/04/08 08:15:03;;;;;;;44.20;15.85;;;;;;;16.27;38.15;93344.25;4987562;28;20057;-92
2023/04/08 08:17:32;;;;;;;50.65;17.60;;;;;;;16.19;38.11;93341.28;4955403;28;20038;-90
2023/04/08 08:20:20;;;;;;;56.20;18.52;;;;;;;16.19;37.90;93346.75;4989287;28;20057;-89
2023/04/08 08:22:45;;;;;;;98.30;23.88;;;;;;;16.16;38.04;93352.44;5002028;23;20043;-89
2023/04/08 08:25:12;;;;;;;65.47;22.83;;;;;;;16.17;38.00;93337.59;4950321;28;20053;-91
2023/04/08 08:27:40;;;;;;;70.38;23.70;;;;;;;16.14;38.13;93344.78;4969497;28;20037;-90
2023/04/08 08:30:06;;;;;;;65.28;24.13;;;;;;;16.17;37.99;93345.75;4962218;28;20186;-90
2023/04/08 08:32:32;;;;;;;61.22;22.45;;;;;;;16.17;38.36;93348.50;4950933;28;20059;-88
2023/04/08 08:34:58;;;;;;;58.63;23.85;;;;;;;16.19;38.29;93354.19;4963672;28;20413;-90
2023/04/08 08:37:24;;;;;;;58.53;21.67;;;;;;;16.11;38.37;93351.22;4959845;28;20043;-90
2023/04/08 08:39:50;;;;;;;71.80;24.10;;;;;;;16.13;38.34;93365.09;4942828;28;20081;-92
2023/04/08 08:42:23;;;;;;;61.60;24.45;;;;;;;16.17;38.21;93368.31;4941752;28;20055;-94
2023/04/08 08:44:49;;;;;;;71.55;25.58;;;;;;;16.20;38.17;93366.59;4954194;28;20121;-89
2023/04/08 08:47:16;;;;;;;52.88;23.58;;;;;;;16.19;38.27;93373.28;4945203;28;20130;-89
2023/04/08 08:49:42;;;;;;;64.75;23.75;;;;;;;16.21;38.17;93371.56;4947929;28;20081;-91
2023/04/08 08:52:19;;;;;;;56.42;25.08;;;;;;;16.25;38.48;93369.28;4953806;28;20078;-91
2023/04/08 08:54:46;;;;;;;70.07;29.92;;;;;;;16.19;38.31;93376.00;4960173;28;20062;-91
2023/04/08 08:57:26;;;;;;;76.90;30.33;;;;;;;16.18;38.20;93369.06;4957505;28;20039;-90
2023/04/08 08:59:51;;;;;;;87.13;35.47;;;;;;;16.20;38.32;93377.50;4975061;28;20042;-90
2023/04/08 09:02:35;;;;;;;88.28;40.80;;;;;;;16.16;38.46;93385.94;4966508;28;20039;-89
2023/04/08 09:05:01;;;;;;;104.68;48.58;;;;;;;16.14;38.17;93388.41;5001189;28;20049;-89
2023/04/08 09:07:47;;;;;;;134.68;59.60;;;;;;;16.15;38.07;93386.41;4952583;28;20727;-92
2023/04/08 09:10:13;;;;;;;219.23;73.20;;;;;;;16.11;38.24;93387.41;4975021;22;20042;-91
2023/04/08 09:12:55;;;;;;;182.10;71.32;;;;;;;16.16;38.10;93394.09;4964074;28;20046;-93
2023/04/08 09:15:21;;;;;;;120.35;57.33;;;;;;;16.23;38.56;93390.16;4972572;28;20042;-91
2023/04/08 09:17:46;;;;;;;143.10;64.72;;;;;;;16.19;38.51;93397.81;4969826;28;20058;-91
2023/04/08 09:20:14;;;;;;;185.90;74.45;;;;;;;16.13;38.37;93397.81;4945965;28;20082;-93
2023/04/08 09:23:00;;;;;;;202.35;72.65;;;;;;;16.17;38.35;93409.22;4920694;29;20332;-92
2023/04/08 09:25:30;;;;;;;133.73;59.58;;;;;;;16.16;38.14;93410.47;4963535;28;20042;-91
2023/04/08 09:27:57;;;;;;;125.15;56.60;;;;;;;16.14;38.42;93404.75;4947459;28;20047;-92
2023/04/08 09:30:24;;;;;;;147.07;58.83;;;;;;;16.14;38.66;93404.75;4974339;28;20057;-91
2023/04/08 09:32:55;;;;;;;191.65;63.13;;;;;;;16.10;38.57;93399.56;4980860;28;20035;-92
2023/04/08 09:35:39;;;;;;;155.80;57.03;;;;;;;16.16;38.87;93407.75;4980538;28;20118;-93
2023/04/08 09:38:07;;;;;;;150.32;60.30;;;;;;;16.10;38.39;93407.72;4970540;28;20069;-92
2023/04/08 09:40:36;;;;;;;144.07;55.30;;;;;;;16.15;38.62;93408.97;4962284;28;20046;-91
2023/04/08 09:43:21;;;;;;;134.32;52.80;;;;;;;16.20;38.52;93410.97;4962241;28;20035;-92
2023/04/08 09:45:50;;;;;;;133.27;56.13;;;;;;;16.16;38.53;93415.94;4999100;28;20042;-92
2023/04/08 09:48:23;;;;;;;148.38;58.95;;;;;;;16.16;38.28;93412.44;4982080;28;20088;-92
2023/04/08 09:50:49;;;;;;;116.45;51.78;;;;;;;16.20;38.79;93415.69;4957144;28;20592;-92
2023/04/08 09:53:34;;;;;;;135.93;54.25;;;;;;;16.14;38.62;93415.66;4942675;28;20125;-92
2023/04/08 09:56:01;;;;;;;133.38;55.33;;;;;;;16.21;38.78;93417.91;4962749;28;20138;-92
2023/04/08 09:58:32;;;;;;;111.70;50.72;;;;;;;16.20;38.57;93419.16;4944675;28;20046;-92
2023/04/08 10:00:58;;;;;;;173.75;57.50;;;;;;;16.12;38.57;93418.16;4955347;28;20141;-91
2023/04/08 10:03:23;;;;;;;144.32;51.55;;;;;;;16.16;38.67;93424.09;4939420;28;20133;-92
2023/04/08 10:05:49;;;;;;;142.95;54.67;;;;;;;16.17;38.55;93414.69;4962882;28;20508;-92
2023/04/08 10:08:15;;;;;;;134.95;56.05;;;;;;;16.18;38.73;93421.63;4950995;28;20030;-92
2023/04/08 10:10:40;;;;;;;125.68;56.03;;;;;;;16.15;38.29;93422.63;4940796;28;20478;-92
2023/04/08 10:13:14;;;;;;;114.22;55.10;;;;;;;16.15;38.76;93424.59;4930343;28;20070;-92
2023/04/08 10:15:43;;;;;;;103.93;51.78;;;;;;;16.18;38.61;93426.34;4959862;28;20160;-92
2023/04/08 10:18:08;;;;;;;111.22;53.65;;;;;;;16.20;38.68;93423.88;4964878;28;20121;-92
2023/04/08 10:20:37;;;;;;;121.53;54.67;;;;;;;16.16;38.32;93432.28;4979642;28;20533;-93
2023/04/08 10:23:03;;;;;;;104.20;50.45;;;;;;;16.15;38.65;93425.34;4975782;28;20039;-92
2023/04/08 10:25:32;;;;;;;124.20;53.70;;;;;;;16.18;38.54;93429.81;4957108;28;20050;-92
2023/04/08 10:28:02;;;;;;;101.93;49.83;;;;;;;16.17;38.85;93425.59;4960534;28;20051;-93
2023/04/08 10:30:27;;;;;;;105.85;47.08;;;;;;;16.13;38.56;93430.53;4943490;28;20038;-92
2023/04/08 10:32:56;;;;;;;115.30;52.22;;;;;;;16.13;38.88;93427.81;4989768;28;20043;-92
2023/04/08 10:35:35;;;;;;;100.50;50.72;;;;;;;16.13;38.83;93427.81;4948348;28;20038;-92
2023/04/08 10:38:01;;;;;;;106.93;52.30;;;;;;;16.16;38.63;93434.28;4992992;28;20057;-91
2023/04/08 10:40:26;;;;;;;94.85;45.70;;;;;;;16.18;38.69;93432.53;4975068;28;20042;-92
2023/04/08 10:42:59;;;;;;;112.13;49.97;;;;;;;16.11;38.85;93435.75;4976311;28;20067;-92
2023/04/08 10:45:24;;;;;;;103.78;47.85;;;;;;;16.19;38.94;93436.00;4949629;28;20047;-93
2023/04/08 10:47:50;;;;;;;110.88;49.25;;;;;;;16.18;38.89;93440.72;4939913;28;20058;-92
2023/04/08 10:50:22;;;;;;;93.82;42.58;;;;;;;16.23;38.88;93439.97;4942551;28;20034;-91
2023/04/08 10:52:48;;;;;;;109.70;48.03;;;;;;;16.17;38.67;93441.22;4975422;28;20038;-93
2023/04/08 10:55:15;;;;;;;108.72;49.80;;;;;;;16.13;38.67;93440.72;4974084;28;20042;-92
2023/04/08 10:57:40;;;;;;;95.38;46.60;;;;;;;16.20;38.99;93440.22;4944822;28;20501;-91
2023/04/08 11:00:10;;;;;;;85.53;46.22;;;;;;;16.20;39.04;93442.97;4939009;28;20039;-93
2023/04/08 11:02:37;;;;;;;96.10;49.25;;;;;;;16.20;38.79;93446.44;4955733;28;20038;-92
2023/04/08 11:05:03;;;;;;;102.00;46.72;;;;;;;16.18;38.62;93440.72;4957077;28;20038;-91
2023/04/08 11:07:28;;;;;;;91.10;46.65;;;;;;;16.18;38.85;93443.44;4973297;28;20395;-92
2023/04/08 11:09:54;;;;;;;98.75;43.65;;;;;;;16.23;39.01;93448.16;4923320;28;20054;-93
2023/04/08 11:12:20;;;;;;;98.80;45.03;;;;;;;16.20;38.67;93443.69;4955566;28;20057;-92
2023/04/08 11:14:46;;;;;;;95.20;46.55;;;;;;;16.18;38.68;93437.25;4955988;28;20039;-91
2023/04/08 11:17:12;;;;;;;93.40;45.13;;;;;;;16.16;38.73;93443.19;4971953;28;20054;-92